Terminal Aerodrome Forecast
Issued by NWS

Current Version | Previous Version | Graphics & Text | Print | Product List | Glossary On
Versions: 1 2 3 4 5 6 7 8 9 10 11 12 13 14 15 16 17 18 19 20 21 22 23 24
730
FTUS41 KPBZ 232335
TAFMGW
TAF
KMGW 232335Z 2400/2424 13005KT P6SM VCSH OVC050
     FM240200 12004KT P6SM -SHRA OVC050
     FM240400 12004KT P6SM VCSH BKN050
     FM241300 13005KT P6SM BKN025
     FM242200 13010G23KT P6SM -SHRA OVC015=

USA.gov is the U.S. government's official web portal to all federal, state and local government web resources and services.